createdAt,value
2023-04-02T00:02:21.688Z,75.01
2023-04-02T00:05:19.817Z,74.77
2023-04-02T00:08:29.991Z,74.94
2023-04-02T00:11:32.043Z,75.15
2023-04-02T00:14:33.554Z,75.19
2023-04-02T00:17:23.143Z,75.21
2023-04-02T00:20:17.951Z,74.79
2023-04-02T00:23:06.396Z,74.85
2023-04-02T00:25:52.575Z,74.79
2023-04-02T00:28:39.230Z,74.69
2023-04-02T00:31:26.183Z,74.77
2023-04-02T00:34:30.906Z,74.90
2023-04-02T00:37:23.885Z,75.19
2023-04-02T00:40:26.833Z,74.84
2023-04-02T00:43:16.880Z,74.78
2023-04-02T00:46:14.937Z,74.91
2023-04-02T00:49:22.693Z,74.88
2023-04-02T00:52:13.212Z,74.53
2023-04-02T00:55:16.319Z,74.32
2023-04-02T00:58:04.604Z,74.28
2023-04-02T01:00:52.198Z,74.07
2023-04-02T01:03:39.069Z,73.77
2023-04-02T01:06:30.229Z,74.22
2023-04-02T01:09:29.007Z,74.29
2023-04-02T01:12:27.840Z,74.19
2023-04-02T01:15:21.507Z,74.36
2023-04-02T01:18:26.676Z,74.47
2023-04-02T01:21:17.918Z,74.40
2023-04-02T01:24:07.387Z,74.55
2023-04-02T01:26:58.353Z,74.31
2023-04-02T01:29:51.949Z,74.44
2023-04-02T01:32:39.544Z,74.51
2023-04-02T01:35:31.198Z,74.96
2023-04-02T01:38:25.785Z,74.97
2023-04-02T01:41:24.083Z,74.98
2023-04-02T01:44:19.002Z,74.91
2023-04-02T01:47:12.186Z,74.64
2023-04-02T01:50:16.076Z,74.82
2023-04-02T01:53:14.915Z,74.84
2023-04-02T01:56:02.736Z,74.73
2023-04-02T01:58:50.101Z,74.65
2023-04-02T02:02:00.397Z,74.47
2023-04-02T02:04:48.855Z,74.27
2023-04-02T02:07:35.786Z,74.23
2023-04-02T02:10:30.180Z,74.41
2023-04-02T02:13:16.885Z,74.04
2023-04-02T02:16:04.603Z,73.98
2023-04-02T02:18:54.966Z,73.97
2023-04-02T02:21:45.768Z,73.93
2023-04-02T02:24:35.765Z,73.95
2023-04-02T02:27:24.576Z,73.27
2023-04-02T02:30:33.079Z,73.33
2023-04-02T02:33:44.717Z,72.93
2023-04-02T02:36:52.779Z,72.91
2023-04-02T02:39:44.157Z,73.11
2023-04-02T02:42:42.835Z,72.99
2023-04-02T02:45:35.898Z,72.55
2023-04-02T02:48:27.240Z,72.80
2023-04-02T02:51:21.983Z,72.39
2023-04-02T02:54:09.639Z,72.13
2023-04-02T02:57:06.454Z,72.44
2023-04-02T02:59:56.997Z,72.20
2023-04-02T03:02:44.822Z,72.11
2023-04-02T03:05:31.931Z,72.01
2023-04-02T03:08:33.484Z,71.34
2023-04-02T03:11:33.485Z,71.55
2023-04-02T03:14:45.523Z,71.38
2023-04-02T03:17:49.303Z,71.66
2023-04-02T03:20:40.912Z,71.31
2023-04-02T03:23:36.499Z,70.92
2023-04-02T03:26:40.902Z,71.18
2023-04-02T03:29:32.154Z,71.22
2023-04-02T03:32:24.219Z,71.31
2023-04-02T03:35:22.520Z,71.68
2023-04-02T03:38:25.787Z,71.40
2023-04-02T03:41:12.123Z,71.32
2023-04-02T03:44:07.759Z,71.40
2023-04-02T03:47:01.585Z,71.70
2023-04-02T03:49:56.801Z,72.18
2023-04-02T03:52:44.952Z,72.51
2023-04-02T03:55:37.241Z,72.84
2023-04-02T03:58:32.138Z,72.98
2023-04-02T04:01:23.288Z,73.28
2023-04-02T04:04:21.884Z,73.61
2023-04-02T04:07:15.851Z,73.61
2023-04-02T04:10:04.681Z,73.76
2023-04-02T04:12:54.527Z,73.95
2023-04-02T04:15:51.712Z,73.88
2023-04-02T04:18:50.002Z,74.18
2023-04-02T04:21:39.865Z,73.88
2023-04-02T04:24:32.857Z,74.01
2023-04-02T04:27:33.787Z,74.10
2023-04-02T04:30:28.525Z,73.97
2023-04-02T04:33:23.072Z,73.80
2023-04-02T04:36:29.184Z,74.15
2023-04-02T04:39:50.754Z,73.66
2023-04-02T04:42:41.561Z,73.44
2023-04-02T04:45:43.232Z,73.39
2023-04-02T04:48:47.537Z,72.93
2023-04-02T04:51:45.333Z,72.88
2023-04-02T04:54:38.351Z,72.24
2023-04-02T04:57:34.391Z,72.47
2023-04-02T05:00:49.666Z,72.55
2023-04-02T05:04:01.600Z,72.05
2023-04-02T05:06:57.646Z,71.90
2023-04-02T05:10:10.805Z,71.81
2023-04-02T05:13:05.808Z,71.82
2023-04-02T05:16:16.384Z,71.64
2023-04-02T05:19:21.217Z,71.21
2023-04-02T05:22:33.416Z,71.70
2023-04-02T05:25:23.692Z,70.68
2023-04-02T05:28:30.654Z,70.76
2023-04-02T05:31:42.200Z,70.43
2023-04-02T05:34:34.580Z,70.88
2023-04-02T05:37:26.354Z,70.47
2023-04-02T05:40:24.294Z,70.92
2023-04-02T05:43:18.020Z,71.06
2023-04-02T05:46:15.451Z,71.14
2023-04-02T05:49:08.697Z,70.97
2023-04-02T05:52:01.474Z,70.99
2023-04-02T05:54:57.810Z,71.36
2023-04-02T05:58:13.517Z,71.13
2023-04-02T06:01:02.719Z,70.98
2023-04-02T06:04:26.830Z,70.55
2023-04-02T06:07:18.444Z,70.71
2023-04-02T06:10:24.155Z,70.67
2023-04-02T06:13:17.862Z,70.20
2023-04-02T06:16:06.271Z,70.39
2023-04-02T06:18:53.662Z,70.05
2023-04-02T06:21:50.002Z,70.08
2023-04-02T06:24:41.273Z,69.84
2023-04-02T06:27:29.255Z,70.26
2023-04-02T06:30:41.202Z,70.75
2023-04-02T06:33:28.136Z,70.34
2023-04-02T06:36:15.019Z,70.18
2023-04-02T06:39:07.828Z,70.09
2023-04-02T06:42:16.587Z,70.19
2023-04-02T06:45:32.080Z,70.29
2023-04-02T06:48:52.736Z,69.86
2023-04-02T06:51:41.761Z,69.66
2023-04-02T06:54:29.292Z,70.01
2023-04-02T06:57:20.100Z,69.84
2023-04-02T07:00:34.403Z,69.16
2023-04-02T07:03:30.194Z,69.45
2023-04-02T07:06:21.318Z,69.13
2023-04-02T07:09:09.924Z,69.04
2023-04-02T07:11:59.561Z,69.31
2023-04-02T07:14:47.996Z,69.50
2023-04-02T07:17:34.616Z,69.08
2023-04-02T07:20:30.953Z,68.92
2023-04-02T07:23:21.225Z,68.13
2023-04-02T07:26:13.075Z,68.47
2023-04-02T07:28:59.684Z,68.47
2023-04-02T07:31:46.569Z,68.96
2023-04-02T07:34:33.338Z,68.77
2023-04-02T07:37:20.376Z,68.21
2023-04-02T07:40:11.894Z,68.25
2023-04-02T07:42:58.138Z,68.48
2023-04-02T07:45:44.835Z,68.61
2023-04-02T07:48:31.931Z,67.76
2023-04-02T07:51:24.411Z,67.96
2023-04-02T07:54:11.267Z,68.20
2023-04-02T07:56:57.754Z,67.64
2023-04-02T07:59:44.200Z,66.84
2023-04-02T08:02:30.757Z,66.92
2023-04-02T08:05:18.150Z,66.93
2023-04-02T08:08:04.900Z,66.74
2023-04-02T08:10:51.689Z,65.86
2023-04-02T08:13:38.837Z,66.11
2023-04-02T08:16:25.777Z,65.43
2023-04-02T08:19:12.756Z,64.73
2023-04-02T08:21:59.472Z,64.44
2023-04-02T08:24:45.893Z,63.80
2023-04-02T08:27:32.208Z,61.41
2023-04-02T08:30:19.205Z,62.67
2023-04-02T08:33:05.610Z,62.33
2023-04-02T08:35:52.451Z,62.24
2023-04-02T08:38:38.967Z,62.52
2023-04-02T08:41:32.290Z,61.72
2023-04-02T08:44:29.684Z,61.66
2023-04-02T08:47:20.427Z,60.61
2023-04-02T08:50:23.184Z,59.87
2023-04-02T08:53:24.614Z,60.11
2023-04-02T08:56:18.138Z,60.41
2023-04-02T08:59:22.832Z,58.94
2023-04-02T09:02:46.973Z,58.48
2023-04-02T09:05:37.757Z,59.18
2023-04-02T09:08:26.467Z,58.98
2023-04-02T09:11:23.810Z,58.86
2023-04-02T09:14:18.560Z,59.99
2023-04-02T09:17:12.638Z,59.73
2023-04-02T09:20:12.689Z,59.28
2023-04-02T09:22:59.497Z,57.92
2023-04-02T09:26:02.908Z,58.60
2023-04-02T09:28:55.361Z,58.12
2023-04-02T09:31:46.637Z,58.19
2023-04-02T09:34:36.146Z,56.69
2023-04-02T09:37:25.703Z,57.90
2023-04-02T09:40:32.603Z,57.41
2023-04-02T09:43:28.325Z,55.80
2023-04-02T09:46:25.927Z,55.46
2023-04-02T09:49:16.434Z,56.54
2023-04-02T09:52:06.184Z,56.07
2023-04-02T09:55:29.174Z,56.52
2023-04-02T09:58:17.566Z,55.52
2023-04-02T10:01:05.185Z,56.11
2023-04-02T10:03:52.102Z,56.48
2023-04-02T10:06:49.535Z,56.56
2023-04-02T10:09:38.604Z,57.15
2023-04-02T10:12:27.018Z,56.26
2023-04-02T10:15:23.416Z,55.39
2023-04-02T10:18:21.802Z,55.59
2023-04-02T10:21:12.945Z,55.60
2023-04-02T10:23:59.805Z,55.76
2023-04-02T10:27:29.836Z,55.50
2023-04-02T10:30:27.333Z,55.08
2023-04-02T10:33:22.278Z,54.79
2023-04-02T10:36:19.673Z,55.04
2023-04-02T10:39:25.631Z,54.79
2023-04-02T10:42:28.410Z,54.90
2023-04-02T10:45:17.585Z,55.38
2023-04-02T10:48:25.460Z,54.50
2023-04-02T10:51:46.441Z,54.19
2023-04-02T10:54:52.642Z,54.96
2023-04-02T10:57:43.328Z,54.97
2023-04-02T11:00:34.767Z,54.27
2023-04-02T11:03:34.294Z,53.00
2023-04-02T11:06:32.424Z,53.00
2023-04-02T11:09:24.825Z,54.09
2023-04-02T11:12:24.539Z,52.89
2023-04-02T11:15:18.118Z,52.51
2023-04-02T11:18:04.931Z,52.73
2023-04-02T11:20:56.339Z,51.61
2023-04-02T11:24:03.001Z,51.23
2023-04-02T11:26:50.606Z,51.24
2023-04-02T11:30:06.420Z,50.63
2023-04-02T11:32:54.333Z,51.82
2023-04-02T11:35:41.163Z,51.31
2023-04-02T11:38:29.241Z,52.29
2023-04-02T11:41:55.546Z,50.51
2023-04-02T11:44:42.223Z,50.07
2023-04-02T11:47:30.447Z,49.08
2023-04-02T11:50:28.957Z,50.06
2023-04-02T11:53:22.861Z,49.02
2023-04-02T11:56:43.006Z,47.64
2023-04-02T11:59:55.608Z,48.64
2023-04-02T12:02:55.821Z,48.47
2023-04-02T12:05:54.710Z,48.04
2023-04-02T12:09:18.904Z,47.83
2023-04-02T12:12:24.559Z,47.61
2023-04-02T12:15:27.107Z,47.72
2023-04-02T12:18:21.909Z,46.77
2023-04-02T12:21:14.528Z,47.52
2023-04-02T12:24:03.305Z,46.81
2023-04-02T12:27:06.778Z,46.56
2023-04-02T12:29:55.078Z,46.37
2023-04-02T12:32:41.916Z,46.92
2023-04-02T12:35:34.489Z,46.47
2023-04-02T12:38:22.984Z,46.49
2023-04-02T12:41:27.168Z,46.80
2023-04-02T12:44:18.800Z,46.94
2023-04-02T12:47:05.489Z,47.16
2023-04-02T12:49:53.024Z,46.38
2023-04-02T12:52:45.999Z,46.44
2023-04-02T12:55:33.633Z,47.19
2023-04-02T12:58:41.154Z,45.73
2023-04-02T13:01:29.830Z,46.69
2023-04-02T13:04:16.596Z,46.90
2023-04-02T13:07:03.535Z,46.83
2023-04-02T13:09:55.606Z,46.61
2023-04-02T13:12:42.133Z,46.32
2023-04-02T13:15:34.407Z,46.17
2023-04-02T13:18:23.099Z,45.82
2023-04-02T13:21:19.492Z,45.98
2023-04-02T13:24:16.987Z,45.63
2023-04-02T13:27:03.898Z,45.07
2023-04-02T13:29:50.719Z,43.50
2023-04-02T13:32:38.199Z,43.91
2023-04-02T13:35:24.940Z,44.58
2023-04-02T13:38:11.275Z,44.11
2023-04-02T13:40:57.596Z,41.98
2023-04-02T13:43:43.876Z,39.39
2023-04-02T13:46:33.639Z,36.08
2023-04-02T13:49:20.937Z,35.24
2023-04-02T13:52:15.571Z,36.55
2023-04-02T13:55:04.280Z,36.43
2023-04-02T13:57:50.679Z,36.91
2023-04-02T14:00:37.978Z,38.02
2023-04-02T14:03:24.603Z,39.25
2023-04-02T14:06:42.494Z,39.43
2023-04-02T14:09:31.842Z,40.77
2023-04-02T14:12:47.408Z,39.47
2023-04-02T14:15:40.489Z,36.84
2023-04-02T14:18:29.807Z,36.77
2023-04-02T14:21:22.179Z,37.53
2023-04-02T14:24:37.804Z,38.09
2023-04-02T14:27:27.105Z,35.09
2023-04-02T14:30:34.107Z,31.53
2023-04-02T14:33:36.083Z,29.02
2023-04-02T14:37:04.920Z,29.40
2023-04-02T14:39:57.481Z,29.76
2023-04-02T14:42:47.301Z,28.39
2023-04-02T14:46:02.817Z,25.38
2023-04-02T14:49:26.708Z,23.70
2023-04-02T14:52:18.802Z,24.33
2023-04-02T14:55:14.518Z,23.21
2023-04-02T14:58:04.668Z,23.40
2023-04-02T15:01:00.408Z,21.22
2023-04-02T15:03:58.411Z,21.07
2023-04-02T15:06:50.458Z,20.20
2023-04-02T15:09:49.269Z,20.18
2023-04-02T15:12:38.826Z,19.91
2023-04-02T15:15:54.246Z,19.19
2023-04-02T15:18:40.882Z,20.51
2023-04-02T15:21:34.296Z,20.33
2023-04-02T15:24:31.072Z,20.01
2023-04-02T15:27:35.620Z,19.07
2023-04-02T15:30:29.364Z,19.58
2023-04-02T15:33:27.750Z,20.28
2023-04-02T15:36:48.251Z,22.01
2023-04-02T15:39:39.251Z,23.97
2023-04-02T15:42:33.293Z,24.79
2023-04-02T15:45:30.428Z,25.99
2023-04-02T15:48:46.775Z,27.63
2023-04-02T15:51:50.343Z,29.37
2023-04-02T15:54:36.678Z,31.46
2023-04-02T15:57:54.716Z,32.96
2023-04-02T16:01:11.835Z,34.15
2023-04-02T16:04:29.915Z,35.16
2023-04-02T16:07:36.251Z,37.10
2023-04-02T16:10:41.220Z,37.38
2023-04-02T16:13:37.981Z,37.69
2023-04-02T16:16:34.794Z,38.52
2023-04-02T16:19:30.728Z,39.06
2023-04-02T16:22:20.450Z,39.87
2023-04-02T16:25:16.735Z,39.54
2023-04-02T16:28:26.551Z,40.27
2023-04-02T16:31:19.298Z,40.09
2023-04-02T16:34:17.671Z,39.99
2023-04-02T16:37:16.567Z,40.48
2023-04-02T16:40:33.381Z,40.75
2023-04-02T16:43:32.475Z,41.04
2023-04-02T16:46:44.228Z,41.00
2023-04-02T16:49:40.814Z,41.33
2023-04-02T16:52:54.714Z,41.54
2023-04-02T16:55:59.571Z,41.64
2023-04-02T16:59:19.754Z,41.95
2023-04-02T17:02:27.510Z,42.51
2023-04-02T17:05:32.555Z,43.00
2023-04-02T17:08:27.562Z,43.06
2023-04-02T17:11:24.264Z,43.64
2023-04-02T17:14:28.450Z,44.02
2023-04-02T17:17:16.901Z,44.96
2023-04-02T17:20:12.842Z,45.38
2023-04-02T17:23:02.742Z,45.66
2023-04-02T17:25:57.876Z,45.42
2023-04-02T17:28:47.506Z,45.65
2023-04-02T17:31:35.904Z,45.81
2023-04-02T17:34:24.011Z,45.93
2023-04-02T17:37:35.050Z,46.57
2023-04-02T17:40:48.086Z,46.73
2023-04-02T17:43:40.069Z,46.28
2023-04-02T17:46:41.472Z,46.64
2023-04-02T17:49:36.861Z,46.35
2023-04-02T17:52:39.752Z,46.62
2023-04-02T17:55:45.074Z,46.64
2023-04-02T17:58:50.059Z,46.88
2023-04-02T18:01:55.869Z,47.09
2023-04-02T18:05:04.299Z,47.12
2023-04-02T18:08:33.249Z,47.76
2023-04-02T18:11:36.859Z,47.70
2023-04-02T18:14:29.451Z,47.89
2023-04-02T18:17:35.695Z,48.00
2023-04-02T18:20:28.346Z,47.80
2023-04-02T18:23:26.524Z,48.32
2023-04-02T18:26:18.750Z,48.40
2023-04-02T18:29:29.614Z,48.51
2023-04-02T18:32:49.817Z,49.19
2023-04-02T18:36:19.087Z,48.91
2023-04-02T18:39:13.183Z,49.82
2023-04-02T18:42:23.178Z,49.85
2023-04-02T18:45:48.551Z,49.96
2023-04-02T18:48:57.657Z,50.33
2023-04-02T18:51:44.202Z,50.40
2023-04-02T18:54:40.548Z,50.68
2023-04-02T18:57:34.138Z,51.11
2023-04-02T19:00:34.523Z,50.94
2023-04-02T19:03:41.557Z,51.88
2023-04-02T19:06:42.532Z,51.91
2023-04-02T19:09:36.559Z,52.50
2023-04-02T19:12:24.280Z,53.18
2023-04-02T19:15:18.780Z,52.97
2023-04-02T19:18:20.392Z,53.24
2023-04-02T19:21:17.353Z,53.34
2023-04-02T19:24:22.763Z,53.30
2023-04-02T19:27:33.524Z,53.45
2023-04-02T19:30:49.705Z,53.76
2023-04-02T19:33:55.741Z,55.06
2023-04-02T19:36:57.481Z,54.91
2023-04-02T19:40:13.918Z,55.50
2023-04-02T19:43:00.610Z,55.34
2023-04-02T19:45:49.206Z,56.16
2023-04-02T19:48:44.747Z,56.35
2023-04-02T19:51:31.582Z,56.45
2023-04-02T19:54:18.766Z,56.82
2023-04-02T19:57:06.118Z,56.60
2023-04-02T19:59:52.777Z,57.63
2023-04-02T20:02:39.499Z,57.91
2023-04-02T20:05:26.247Z,57.42
2023-04-02T20:08:12.957Z,58.66
2023-04-02T20:11:00.211Z,58.40
2023-04-02T20:13:47.880Z,58.13
2023-04-02T20:16:36.715Z,58.66
2023-04-02T20:19:23.220Z,59.19
2023-04-02T20:22:09.582Z,59.18
2023-04-02T20:24:56.237Z,58.82
2023-04-02T20:27:42.874Z,60.13
2023-04-02T20:30:32.387Z,59.83
2023-04-02T20:33:22.210Z,59.39
2023-04-02T20:36:17.017Z,59.87
2023-04-02T20:39:07.193Z,60.14
2023-04-02T20:41:53.822Z,59.77
2023-04-02T20:44:41.502Z,60.08
2023-04-02T20:47:27.735Z,60.34
2023-04-02T20:50:14.546Z,60.52
2023-04-02T20:53:01.642Z,60.98
2023-04-02T20:55:48.260Z,60.71
2023-04-02T20:58:36.171Z,60.88
2023-04-02T21:01:25.343Z,60.88
2023-04-02T21:04:13.084Z,60.75
2023-04-02T21:06:59.560Z,61.02
2023-04-02T21:09:45.877Z,61.77
2023-04-02T21:12:32.317Z,61.00
2023-04-02T21:15:18.799Z,61.35
2023-04-02T21:18:05.241Z,61.49
2023-04-02T21:21:06.410Z,61.31
2023-04-02T21:24:01.117Z,61.52
2023-04-02T21:26:47.689Z,61.85
2023-04-02T21:29:34.402Z,62.24
2023-04-02T21:32:21.987Z,62.32
2023-04-02T21:35:09.223Z,62.14
2023-04-02T21:37:56.197Z,62.07
2023-04-02T21:40:42.670Z,62.67
2023-04-02T21:43:29.301Z,62.47
2023-04-02T21:46:19.002Z,62.52
2023-04-02T21:49:08.141Z,62.32
2023-04-02T21:51:54.816Z,62.77
2023-04-02T21:54:41.349Z,63.26
2023-04-02T21:57:28.148Z,62.63
2023-04-02T22:00:15.705Z,62.97
2023-04-02T22:03:02.298Z,63.12
2023-04-02T22:05:48.933Z,62.95
2023-04-02T22:08:35.979Z,62.95
2023-04-02T22:11:26.614Z,63.10
2023-04-02T22:14:13.767Z,63.07
2023-04-02T22:17:00.746Z,63.59
2023-04-02T22:19:47.477Z,63.65
2023-04-02T22:22:33.650Z,63.56
2023-04-02T22:25:19.952Z,63.78
2023-04-02T22:28:06.218Z,63.53
2023-04-02T22:30:53.437Z,63.80
2023-04-02T22:33:41.525Z,63.67
2023-04-02T22:36:29.888Z,63.57
2023-04-02T22:39:17.106Z,63.24
2023-04-02T22:42:03.885Z,63.48
2023-04-02T22:44:50.393Z,63.70
2023-04-02T22:47:36.760Z,64.27
2023-04-02T22:50:23.087Z,64.17
2023-04-02T22:53:11.994Z,64.02
2023-04-02T22:56:13.337Z,64.24
2023-04-02T22:59:00.837Z,64.37
2023-04-02T23:01:47.599Z,64.32
2023-04-02T23:04:34.410Z,64.62
2023-04-02T23:07:20.652Z,64.57
2023-04-02T23:10:07.601Z,64.71
2023-04-02T23:12:54.425Z,65.11
2023-04-02T23:15:44.730Z,65.13
2023-04-02T23:18:33.217Z,65.52
2023-04-02T23:21:21.250Z,65.82
2023-04-02T23:24:07.483Z,65.81
2023-04-02T23:26:54.222Z,66.13
2023-04-02T23:29:40.656Z,66.16
2023-04-02T23:32:26.903Z,66.05
2023-04-02T23:35:13.491Z,66.08
2023-04-02T23:38:00.035Z,66.00
2023-04-02T23:40:46.476Z,66.10
2023-04-02T23:43:33.328Z,66.13
2023-04-02T23:46:20.684Z,66.83
2023-04-02T23:49:11.252Z,66.75
2023-04-02T23:51:58.045Z,66.72
2023-04-02T23:54:44.399Z,66.90
2023-04-02T23:57:30.924Z,66.79
